Madison, AL (35757)

7:30 PM CDT on August 30, 2016 (GMT -0500)
Hunter's Crossing | | Change Station

Elev 801 ft 34.78 °N, 86.76 °W | Updated 19 seconds ago

Clear
Clear
82.4 °F
Feels Like 87 °F
N
0.0
Wind Variable Wind from WSW
Gusts 0.0 mph

Today
High -- | Low -- °F
--% Chance of Precip.
Yesterday
High -- | Low -- °F
Precip. -- in
Pressure 29.96 in
Visibility 10.0 miles
Clouds Clear
Heat Index 87 °F
Dew Point 71 °F
Humidity 68%
Rainfall 0.00 in
Snow Depth Not available.
6:18 AM 7:15 PM
Waning Crescent, 2% visible
METAR KHUA 302358Z AUTO 02005KT 10SM CLR 30/21 A2997 RMK AO2 SLP143 T02980208 10337 20298 57009
Pressure 29.96 in
Visibility 10.0 miles
Clouds Clear
Heat Index 87 °F
Dew Point 71 °F
Humidity 68%
Rainfall 0.00 in
Snow Depth Not available.
6:18 AM 7:15 PM
Waning Crescent, 2% visible
METAR KHUA 302358Z AUTO 02005KT 10SM CLR 30/21 A2997 RMK AO2 SLP143 T02980208 10337 20298 57009

10-Day Weather Forecast

Almanac

Astronomy

Aug. 30, 2016 Rise Set
Actual Time
Civil Twilight
Nautical Twilight
Astronomical Twilight
Moon
Length of Visible Light
Length of Day
Tomorrow will be .
, % of the Moon is Illuminated

Today's Extremes

State Highs State Lows

Community

WunderPhotos

Upload Photos

1,935,961 photos uploaded!

WunderBlog® & News

Nearby

Air Quality

  Air Quality AQ Index Pollutant
Not available.

Snow Depth

Station Depth Elevation

Earthquake Activity

City Distance Mag. Time & Date
Minimum magnitude displayed is 2.5.

Coastal Water Temperatures

Place Temperature

Stations

Nearby Weather Stations

Station Location Temp. Windchill Dew Point Humidity Wind Precip. Elev Updated Type
                   

Watches & Warnings

There are currently no watches in effect.